Terminal Aerodrome Forecast
Issued by NWS Charleston, WV

Current Version | Previous Version | Graphics & Text | Print | Product List | Glossary Off
Versions: 1 2 3 4 5 6 7 8 9 10 11 12 13 14 15 16 17 18 19 20 21 22 23

000
FTUS41 KRLX 300500 CCA
TAFEKN
TAF COR
KEKN 300535Z 3006/3106 23009KT 6SM -SHRASN OVC025
      TEMPO 3006/3007 VRB20G35KT
     FM300900 23010G15KT 6SM -SHRASN OVC025
     FM301300 26010G16KT P6SM OVC025
     FM301700 27012G19KT P6SM SCT030
     FM310200 28010KT P6SM BKN200=

USA.gov is the U.S. government's official web portal to all federal, state and local government web resources and services.